Northfield, MN

12:47 AM CDT on September 05, 2015 (GMT -0500)
Downtown Northfield - KYMN Radio | | Change Station
CLOSE
Current Station
Personal Weather Station
Location: Northfield, MN
Elevation: 902 ft
Nearby Weather Stations

Elev 902 ft 44.46 °N, 93.16 °W | Updated 10 minutes ago

Rain
Rain
75.2 °F
Feels Like 75 °F
N
5.8
Wind Variable Wind from South

Today
High -- | Low -- °F
--% Chance of Precip.
Yesterday
High -- | Low -- °F
Precip. -- in
6:39 AM 7:42 PM
Waning Gibbous, 52% visible
Pressure 29.95 in
Visibility 10.0 miles
Clouds Scattered Clouds 12000 ft
Heat Index 75 °F
Dew Point 71 °F
Humidity 86%
Rainfall 0.00 in
Snow Depth Not available.
UV 0 out of 12
Pollen 9.10 out of 12
Air Quality Not available.
Flu Activity Not available.
METAR KSYN 050533Z AUTO 16004KT 10SM -DZ SCT120 25/21 A2995 RMK AO2 T02500210
Pressure 29.95 in
Visibility 10.0 miles
Clouds Scattered Clouds 12000 ft
Heat Index 75 °F
Dew Point 71 °F
Humidity 86%
Rainfall 0.00 in
Snow Depth Not available.
UV 0 out of 12
Pollen 9.10 out of 12
Air Quality Not available.
Flu Activity Not available.
METAR KSYN 050533Z AUTO 16004KT 10SM -DZ SCT120 25/21 A2995 RMK AO2 T02500210

10-Day Weather Forecast

×

Almanac

Astronomy

Sep. 05, 2015 Rise Set
Actual Time
Civil Twilight
Nautical Twilight
Astronomical Twilight
Moon
Length of Visible Light
Length of Day
Tomorrow will be .
, % of the Moon is Illuminated

Today's Extremes

State Highs State Lows

Community

WunderPhotos

Upload Photos

1,852,428 photos uploaded!

WunderBlogs® & News

Nearby

Air Quality

  Air Quality AQ Index Pollutant
Not available.

Snow Depth

Station Depth Elevation

Earthquake Activity

City Distance Mag. Time & Date
Minimum magnitude displayed is 2.5.

Coastal Water Temperatures

Place Temperature

Stations

Nearby Weather Stations

Station Location Temp. Windchill Dew Point Humidity Wind Precip. Elev Updated Type